createdAt,value
2023-03-25T00:00:14.374Z,1.00
2023-03-25T00:02:42.503Z,1.05
2023-03-25T00:05:10.849Z,1.20
2023-03-25T00:07:37.751Z,1.20
2023-03-25T00:10:04.863Z,0.98
2023-03-25T00:12:31.519Z,1.23
2023-03-25T00:14:58.310Z,1.80
2023-03-25T00:17:31.887Z,0.85
2023-03-25T00:20:00.500Z,1.35
2023-03-25T00:22:27.321Z,0.93
2023-03-25T00:24:54.026Z,1.20
2023-03-25T00:27:20.670Z,1.15
2023-03-25T00:29:47.414Z,1.20
2023-03-25T00:32:15.732Z,1.50
2023-03-25T00:34:47.304Z,1.25
2023-03-25T00:37:21.841Z,1.13
2023-03-25T00:39:48.970Z,1.25
2023-03-25T00:42:17.514Z,1.10
2023-03-25T00:44:44.308Z,1.30
2023-03-25T00:47:12.469Z,1.35
2023-03-25T00:49:39.112Z,0.80
2023-03-25T00:52:05.733Z,1.20
2023-03-25T00:54:34.316Z,1.30
2023-03-25T00:57:01.148Z,1.53
2023-03-25T00:59:27.911Z,1.30
2023-03-25T01:01:56.145Z,1.60
2023-03-25T01:04:22.851Z,2.13
2023-03-25T01:06:52.063Z,1.58
2023-03-25T01:09:19.979Z,1.45
2023-03-25T01:11:48.266Z,1.77
2023-03-25T01:14:21.361Z,1.63
2023-03-25T01:16:48.138Z,2.00
2023-03-25T01:19:15.697Z,1.83
2023-03-25T01:21:42.496Z,1.80
2023-03-25T01:24:12.766Z,2.03
2023-03-25T01:26:41.370Z,2.10
2023-03-25T01:29:07.988Z,2.17
2023-03-25T01:31:34.592Z,2.08
2023-03-25T01:34:01.092Z,2.00
2023-03-25T01:36:31.210Z,2.13
2023-03-25T01:39:01.370Z,2.08
2023-03-25T01:41:42.360Z,2.00
2023-03-25T01:44:19.628Z,2.28
2023-03-25T01:46:49.512Z,2.25
2023-03-25T01:49:24.609Z,2.17
2023-03-25T01:51:56.967Z,2.33
2023-03-25T01:54:24.380Z,2.28
2023-03-25T01:56:52.441Z,2.08
2023-03-25T01:59:24.882Z,2.22
2023-03-25T02:01:53.647Z,2.58
2023-03-25T02:04:45.330Z,2.60
2023-03-25T02:07:13.026Z,1.92
2023-03-25T02:09:39.691Z,1.70
2023-03-25T02:12:07.514Z,2.42
2023-03-25T02:14:37.400Z,2.00
2023-03-25T02:17:33.035Z,2.10
2023-03-25T02:20:27.588Z,1.88
2023-03-25T02:23:21.915Z,1.90
2023-03-25T02:26:14.013Z,2.20
2023-03-25T02:29:05.112Z,2.00
2023-03-25T02:31:53.692Z,1.73
2023-03-25T02:34:37.922Z,1.80
2023-03-25T02:37:49.903Z,2.15
2023-03-25T02:40:26.786Z,1.80
2023-03-25T02:43:27.292Z,2.30
2023-03-25T02:45:57.842Z,2.65
2023-03-25T02:48:40.748Z,1.63
2023-03-25T02:51:19.110Z,1.92
2023-03-25T02:53:48.600Z,1.70
2023-03-25T02:58:46.739Z,2.55
2023-03-25T03:03:42.367Z,2.35
2023-03-25T03:06:17.453Z,2.97
2023-03-25T03:08:50.906Z,2.78
2023-03-25T03:11:44.936Z,2.40
2023-03-25T03:14:41.933Z,2.25
2023-03-25T03:17:20.145Z,2.60
2023-03-25T03:20:02.082Z,2.28
2023-03-25T03:22:41.213Z,2.00
2023-03-25T03:25:27.018Z,3.33
2023-03-25T03:28:05.888Z,2.47
2023-03-25T03:30:48.376Z,2.58
2023-03-25T03:33:26.074Z,2.83
2023-03-25T03:35:57.547Z,3.40
2023-03-25T03:38:34.787Z,3.03
2023-03-25T03:41:07.969Z,3.03
2023-03-25T03:43:45.274Z,2.75
2023-03-25T03:46:27.511Z,2.90
2023-03-25T03:48:59.674Z,2.95
2023-03-25T03:51:29.543Z,2.90
2023-03-25T03:54:00.704Z,2.53
2023-03-25T03:56:53.409Z,2.35
2023-03-25T03:59:30.020Z,2.53
2023-03-25T04:02:01.515Z,2.42
2023-03-25T04:04:28.325Z,2.40
2023-03-25T04:07:14.806Z,2.55
2023-03-25T04:09:55.193Z,2.25
2023-03-25T04:12:28.065Z,2.42
2023-03-25T04:14:56.161Z,1.92
2023-03-25T04:17:24.213Z,2.42
2023-03-25T04:19:53.539Z,1.75
2023-03-25T04:22:21.818Z,2.15
2023-03-25T04:24:52.010Z,1.88
2023-03-25T04:27:19.899Z,2.50
2023-03-25T04:29:47.797Z,2.22
2023-03-25T04:32:15.244Z,2.20
2023-03-25T04:34:42.046Z,2.70
2023-03-25T04:37:08.585Z,1.83
2023-03-25T04:39:35.538Z,1.90
2023-03-25T04:42:03.670Z,1.80
2023-03-25T04:44:33.774Z,1.88
2023-03-25T04:47:02.353Z,1.90
2023-03-25T04:49:28.985Z,2.17
2023-03-25T04:51:56.970Z,2.17
2023-03-25T04:54:23.963Z,2.35
2023-03-25T04:56:52.374Z,2.15
2023-03-25T04:59:21.126Z,2.60
2023-03-25T05:01:49.050Z,2.03
2023-03-25T05:04:17.625Z,2.83
2023-03-25T05:06:50.615Z,2.37
2023-03-25T05:09:24.061Z,2.30
2023-03-25T05:11:51.982Z,2.78
2023-03-25T05:14:20.786Z,2.45
2023-03-25T05:16:47.619Z,2.30
2023-03-25T05:19:15.760Z,2.30
2023-03-25T05:21:42.477Z,2.78
2023-03-25T05:24:11.210Z,2.92
2023-03-25T05:26:39.705Z,3.00
2023-03-25T05:29:15.678Z,2.47
2023-03-25T05:31:48.953Z,2.88
2023-03-25T05:34:17.182Z,3.05
2023-03-25T05:36:44.250Z,3.03
2023-03-25T05:39:11.077Z,3.17
2023-03-25T05:41:41.662Z,3.33
2023-03-25T05:44:10.418Z,2.70
2023-03-25T05:46:37.203Z,3.20
2023-03-25T05:49:03.943Z,3.03
2023-03-25T05:51:37.348Z,2.60
2023-03-25T05:54:08.746Z,2.60
2023-03-25T05:56:36.881Z,2.10
2023-03-25T05:59:03.909Z,2.30
2023-03-25T06:01:33.373Z,2.78
2023-03-25T06:04:02.873Z,2.83
2023-03-25T06:06:34.176Z,2.80
2023-03-25T06:09:02.309Z,2.67
2023-03-25T06:11:29.557Z,2.50
2023-03-25T06:13:56.488Z,2.40
2023-03-25T06:16:29.872Z,2.25
2023-03-25T06:18:59.823Z,2.47
2023-03-25T06:21:30.235Z,2.45
2023-03-25T06:23:58.836Z,2.00
2023-03-25T06:26:26.444Z,2.22
2023-03-25T06:28:53.443Z,2.05
2023-03-25T06:31:23.090Z,2.70
2023-03-25T06:33:50.848Z,2.22
2023-03-25T06:36:20.237Z,2.00
2023-03-25T06:41:20.479Z,2.10
2023-03-25T06:43:54.285Z,1.88
2023-03-25T06:46:39.586Z,2.28
2023-03-25T06:49:16.368Z,1.70
2023-03-25T06:51:43.150Z,2.55
2023-03-25T06:54:09.752Z,1.95
2023-03-25T06:56:36.399Z,2.05
2023-03-25T06:59:03.946Z,2.03
2023-03-25T07:01:30.676Z,2.30
2023-03-25T07:03:57.242Z,1.88
2023-03-25T07:06:24.718Z,2.03
2023-03-25T07:08:51.858Z,2.00
2023-03-25T07:11:27.233Z,2.35
2023-03-25T07:13:54.447Z,2.17
2023-03-25T07:16:22.197Z,1.77
2023-03-25T07:18:50.822Z,2.88
2023-03-25T07:21:18.440Z,2.63
2023-03-25T07:23:45.195Z,2.00
2023-03-25T07:26:13.375Z,1.98
2023-03-25T07:28:40.867Z,2.10
2023-03-25T07:31:08.907Z,1.98
2023-03-25T07:33:36.496Z,1.75
2023-03-25T07:36:04.627Z,1.67
2023-03-25T07:38:31.226Z,1.90
2023-03-25T07:40:58.110Z,1.88
2023-03-25T07:43:24.736Z,2.80
2023-03-25T07:45:56.401Z,2.05
2023-03-25T07:48:24.024Z,2.58
2023-03-25T07:50:52.588Z,1.67
2023-03-25T07:53:19.412Z,2.30
2023-03-25T07:55:46.438Z,1.77
2023-03-25T07:58:13.318Z,2.00
2023-03-25T08:00:39.920Z,2.05
2023-03-25T08:03:06.914Z,1.80
2023-03-25T08:05:33.603Z,2.30
2023-03-25T08:08:00.403Z,2.05
2023-03-25T08:10:27.242Z,2.60
2023-03-25T08:12:54.236Z,2.65
2023-03-25T08:15:24.598Z,2.28
2023-03-25T08:17:54.181Z,2.38
2023-03-25T08:22:48.071Z,3.13
2023-03-25T08:25:14.789Z,2.50
2023-03-25T08:27:41.510Z,2.70
2023-03-25T08:30:10.226Z,2.90
2023-03-25T08:32:38.517Z,3.13
2023-03-25T08:35:06.103Z,3.08
2023-03-25T08:37:37.778Z,3.03
2023-03-25T08:40:09.125Z,3.47
2023-03-25T08:42:36.939Z,3.30
2023-03-25T08:45:05.625Z,3.40
2023-03-25T08:47:32.296Z,4.00
2023-03-25T08:49:58.970Z,3.95
2023-03-25T08:52:25.643Z,3.33
2023-03-25T08:54:52.385Z,3.88
2023-03-25T08:57:18.983Z,3.95
2023-03-25T08:59:45.920Z,4.22
2023-03-25T09:02:13.149Z,4.10
2023-03-25T09:04:39.840Z,4.22
2023-03-25T09:07:12.512Z,3.55
2023-03-25T09:09:40.707Z,3.53
2023-03-25T09:12:08.194Z,3.45
2023-03-25T09:14:34.797Z,3.28
2023-03-25T09:17:01.396Z,3.80
2023-03-25T09:19:28.044Z,3.28
2023-03-25T09:21:54.657Z,3.47
2023-03-25T09:24:22.810Z,2.80
2023-03-25T09:26:49.738Z,2.60
2023-03-25T09:29:16.909Z,3.40
2023-03-25T09:31:43.614Z,2.85
2023-03-25T09:34:11.093Z,4.20
2023-03-25T09:36:37.896Z,3.10
2023-03-25T09:39:06.946Z,3.22
2023-03-25T09:41:51.705Z,2.92
2023-03-25T09:44:25.347Z,2.83
2023-03-25T09:46:52.268Z,2.65
2023-03-25T09:49:28.058Z,2.83
2023-03-25T09:51:56.102Z,2.83
2023-03-25T09:54:31.804Z,3.33
2023-03-25T09:57:04.956Z,3.55
2023-03-25T09:59:41.928Z,2.90
2023-03-25T10:02:28.090Z,3.00
2023-03-25T10:05:14.455Z,2.38
2023-03-25T10:07:50.556Z,3.88
2023-03-25T10:10:28.604Z,3.20
2023-03-25T10:13:19.892Z,2.40
2023-03-25T10:16:10.805Z,3.22
2023-03-25T10:18:49.678Z,3.03
2023-03-25T10:21:53.437Z,2.75
2023-03-25T10:24:27.418Z,3.08
2023-03-25T10:27:41.525Z,3.33
2023-03-25T10:30:23.591Z,3.38
2023-03-25T10:32:55.382Z,2.55
2023-03-25T10:35:30.082Z,3.42
2023-03-25T10:38:13.945Z,3.30
2023-03-25T10:40:50.161Z,2.58
2023-03-25T10:43:31.293Z,3.15
2023-03-25T10:46:17.887Z,3.10
2023-03-25T10:48:46.161Z,3.17
2023-03-25T10:51:35.617Z,3.00
2023-03-25T10:56:36.872Z,3.00
2023-03-25T10:59:28.017Z,3.05
2023-03-25T11:01:56.153Z,3.28
2023-03-25T11:04:35.285Z,3.05
2023-03-25T11:07:05.597Z,3.28
2023-03-25T11:09:34.256Z,3.53
2023-03-25T11:12:02.597Z,4.43
2023-03-25T11:14:30.861Z,3.92
2023-03-25T11:17:03.871Z,2.85
2023-03-25T11:19:41.733Z,2.70
2023-03-25T11:22:22.107Z,2.75
2023-03-25T11:24:57.911Z,2.90
2023-03-25T11:27:28.437Z,2.30
2023-03-25T11:30:17.019Z,2.85
2023-03-25T11:32:43.598Z,2.67
2023-03-25T11:35:23.111Z,2.85
2023-03-25T11:40:22.257Z,2.97
2023-03-25T11:42:54.688Z,3.85
2023-03-25T11:45:25.037Z,2.85
2023-03-25T11:47:52.529Z,2.72
2023-03-25T11:50:25.621Z,3.13
2023-03-25T11:52:56.649Z,2.72
2023-03-25T11:55:43.806Z,3.08
2023-03-25T11:58:15.941Z,2.35
2023-03-25T12:00:47.782Z,2.45
2023-03-25T12:03:14.432Z,2.20
2023-03-25T12:05:42.116Z,2.72
2023-03-25T12:08:15.522Z,2.63
2023-03-25T12:10:51.262Z,3.00
2023-03-25T12:13:30.267Z,2.88
2023-03-25T12:16:22.003Z,2.83
2023-03-25T12:19:02.798Z,2.95
2023-03-25T12:21:54.967Z,3.05
2023-03-25T12:24:48.330Z,2.70
2023-03-25T12:27:31.052Z,2.03
2023-03-25T12:30:34.766Z,1.98
2023-03-25T12:33:23.075Z,2.50
2023-03-25T12:35:57.922Z,2.70
2023-03-25T12:38:32.706Z,3.28
2023-03-25T12:41:23.233Z,2.50
2023-03-25T12:44:10.849Z,2.42
2023-03-25T12:47:15.477Z,2.50
2023-03-25T12:50:32.297Z,2.65
2023-03-25T12:53:17.333Z,2.38
2023-03-25T12:55:52.083Z,2.42
2023-03-25T12:58:34.684Z,3.03
2023-03-25T13:01:11.197Z,2.78
2023-03-25T13:03:43.968Z,3.10
2023-03-25T13:06:19.726Z,2.22
2023-03-25T13:09:25.477Z,2.15
2023-03-25T13:11:57.364Z,1.83
2023-03-25T13:14:36.729Z,1.88
2023-03-25T13:17:11.118Z,1.90
2023-03-25T13:19:42.355Z,2.08
2023-03-25T13:22:29.112Z,2.25
2023-03-25T13:24:59.327Z,2.03
2023-03-25T13:27:32.219Z,2.55
2023-03-25T13:30:00.875Z,1.77
2023-03-25T13:32:47.894Z,1.90
2023-03-25T13:35:20.675Z,2.03
2023-03-25T13:37:52.951Z,1.90
2023-03-25T13:40:25.149Z,1.63
2023-03-25T13:43:19.488Z,1.55
2023-03-25T13:45:55.002Z,1.90
2023-03-25T13:48:49.384Z,1.60
2023-03-25T13:51:16.397Z,1.73
2023-03-25T13:53:57.106Z,1.73
2023-03-25T13:56:33.049Z,1.77
2023-03-25T13:59:19.513Z,1.50
2023-03-25T14:02:11.333Z,1.95
2023-03-25T14:05:06.273Z,2.08
2023-03-25T14:08:10.770Z,1.88
2023-03-25T14:10:49.978Z,2.03
2023-03-25T14:13:31.069Z,2.05
2023-03-25T14:16:14.708Z,2.03
2023-03-25T14:18:44.454Z,3.38
2023-03-25T14:21:28.269Z,2.20
2023-03-25T14:24:04.292Z,2.33
2023-03-25T14:26:34.528Z,2.35
2023-03-25T14:29:09.021Z,3.10
2023-03-25T14:31:35.971Z,2.30
2023-03-25T14:34:02.720Z,2.63
2023-03-25T14:36:42.146Z,2.50
2023-03-25T14:39:10.594Z,2.47
2023-03-25T14:42:08.238Z,2.75
2023-03-25T14:44:41.171Z,2.47
2023-03-25T14:47:17.194Z,1.83
2023-03-25T14:50:05.330Z,1.98
2023-03-25T14:52:46.678Z,2.42
2023-03-25T14:55:41.415Z,2.30
2023-03-25T14:58:17.249Z,2.58
2023-03-25T15:01:12.623Z,2.75
2023-03-25T15:03:44.048Z,2.60
2023-03-25T15:06:28.759Z,2.28
2023-03-25T15:08:57.838Z,2.15
2023-03-25T15:11:33.841Z,2.83
2023-03-25T15:14:04.425Z,2.08
2023-03-25T15:16:47.549Z,2.22
2023-03-25T15:19:18.283Z,2.20
2023-03-25T15:21:57.093Z,2.15
2023-03-25T15:24:32.263Z,2.30
2023-03-25T15:27:36.502Z,1.92
2023-03-25T15:30:44.768Z,2.20
2023-03-25T15:33:32.520Z,2.30
2023-03-25T15:36:19.528Z,2.35
2023-03-25T15:38:51.814Z,2.25
2023-03-25T15:41:32.223Z,1.40
2023-03-25T15:44:20.950Z,1.02
2023-03-25T15:47:15.681Z,0.82
2023-03-25T15:50:01.174Z,1.10
2023-03-25T15:52:49.392Z,1.27
2023-03-25T15:56:05.632Z,1.63
2023-03-25T15:58:41.854Z,1.70
2023-03-25T16:01:25.713Z,1.73
2023-03-25T16:04:25.328Z,1.30
2023-03-25T16:06:56.670Z,1.17
2023-03-25T16:09:28.565Z,2.08
2023-03-25T16:12:01.367Z,1.55
2023-03-25T16:14:33.282Z,1.10
2023-03-25T16:17:03.624Z,1.48
2023-03-25T16:19:43.105Z,1.52
2023-03-25T16:24:44.150Z,1.58
2023-03-25T16:27:13.134Z,2.03
2023-03-25T16:29:39.964Z,2.25
2023-03-25T16:32:06.889Z,2.05
2023-03-25T16:34:40.657Z,3.00
2023-03-25T16:37:07.740Z,2.00
2023-03-25T16:39:36.702Z,1.45
2023-03-25T16:42:23.359Z,1.38
2023-03-25T16:44:49.986Z,1.00
2023-03-25T16:47:16.962Z,1.08
2023-03-25T16:49:48.298Z,0.90
2023-03-25T16:52:19.625Z,1.08
2023-03-25T16:54:52.266Z,0.82
2023-03-25T16:57:24.263Z,0.80
2023-03-25T16:59:53.040Z,1.20
2023-03-25T17:02:42.422Z,0.80
2023-03-25T17:07:57.453Z,1.10
2023-03-25T17:10:29.479Z,0.90
2023-03-25T17:13:09.589Z,2.85
2023-03-25T17:15:37.104Z,1.17
2023-03-25T17:18:13.087Z,1.52
2023-03-25T17:20:42.396Z,1.58
2023-03-25T17:23:37.308Z,1.67
2023-03-25T17:26:13.358Z,1.42
2023-03-25T17:29:01.895Z,1.52
2023-03-25T17:31:34.727Z,2.45
2023-03-25T17:34:10.848Z,1.77
2023-03-25T17:36:40.431Z,2.20
2023-03-25T17:42:00.464Z,1.30
2023-03-25T17:44:37.307Z,1.60
2023-03-25T17:47:05.546Z,1.38
2023-03-25T17:49:32.781Z,1.38
2023-03-25T17:51:59.406Z,1.20
2023-03-25T17:54:26.256Z,1.23
2023-03-25T17:56:53.047Z,1.40
2023-03-25T17:59:23.109Z,1.40
2023-03-25T18:01:50.079Z,1.40
2023-03-25T18:04:17.938Z,1.48
2023-03-25T18:06:44.808Z,1.10
2023-03-25T18:09:23.591Z,1.38
2023-03-25T18:11:53.563Z,1.38
2023-03-25T18:14:21.423Z,0.90
2023-03-25T18:16:48.048Z,1.38
2023-03-25T18:19:23.653Z,1.27
2023-03-25T18:21:50.450Z,1.52
2023-03-25T18:24:17.153Z,1.67
2023-03-25T18:26:44.629Z,1.00
2023-03-25T18:29:24.239Z,1.83
2023-03-25T18:31:52.256Z,1.23
2023-03-25T18:34:20.947Z,1.30
2023-03-25T18:36:49.415Z,1.20
2023-03-25T18:39:19.534Z,1.38
2023-03-25T18:41:46.139Z,1.40
2023-03-25T18:44:16.955Z,1.15
2023-03-25T18:46:43.607Z,1.33
2023-03-25T18:49:19.060Z,1.23
2023-03-25T18:51:48.254Z,1.60
2023-03-25T18:54:15.000Z,1.73
2023-03-25T18:56:42.121Z,1.48
2023-03-25T18:59:15.235Z,2.33
2023-03-25T19:01:42.438Z,1.98
2023-03-25T19:04:09.170Z,2.33
2023-03-25T19:06:38.968Z,1.85
2023-03-25T19:09:08.512Z,1.58
2023-03-25T19:11:35.752Z,2.20
2023-03-25T19:14:02.389Z,1.60
2023-03-25T19:16:29.130Z,1.77
2023-03-25T19:18:55.801Z,1.50
2023-03-25T19:21:22.407Z,2.15
2023-03-25T19:23:49.022Z,2.20
2023-03-25T19:26:15.776Z,1.75
2023-03-25T19:28:42.628Z,1.45
2023-03-25T19:31:13.342Z,1.80
2023-03-25T19:33:40.145Z,2.22
2023-03-25T19:36:08.158Z,1.60
2023-03-25T19:38:34.852Z,1.52
2023-03-25T19:41:12.981Z,1.30
2023-03-25T19:43:39.840Z,1.58
2023-03-25T19:46:06.998Z,1.33
2023-03-25T19:48:34.893Z,1.70
2023-03-25T19:51:01.667Z,1.90
2023-03-25T19:53:29.464Z,1.50
2023-03-25T19:55:56.818Z,1.45
2023-03-25T19:58:24.596Z,1.75
2023-03-25T20:00:51.785Z,1.48
2023-03-25T20:03:22.088Z,2.28
2023-03-25T20:05:55.526Z,1.40
2023-03-25T20:08:23.158Z,1.40
2023-03-25T20:10:49.746Z,1.77
2023-03-25T20:13:16.285Z,1.67
2023-03-25T20:15:42.944Z,1.60
2023-03-25T20:18:10.591Z,1.52
2023-03-25T20:20:37.291Z,2.15
2023-03-25T20:23:03.836Z,1.65
2023-03-25T20:25:30.578Z,1.92
2023-03-25T20:27:57.217Z,1.70
2023-03-25T20:30:24.760Z,1.85
2023-03-25T20:32:51.389Z,1.30
2023-03-25T20:35:18.993Z,1.55
2023-03-25T20:37:48.742Z,1.60
2023-03-25T20:40:17.874Z,1.50
2023-03-25T20:42:46.819Z,1.70
2023-03-25T20:45:16.446Z,1.90
2023-03-25T20:50:16.376Z,1.85
2023-03-25T20:52:44.772Z,1.70
2023-03-25T20:55:14.668Z,2.03
2023-03-25T20:57:41.645Z,2.00
2023-03-25T21:00:13.220Z,2.35
2023-03-25T21:02:41.660Z,1.95
2023-03-25T21:05:08.537Z,1.98
2023-03-25T21:07:40.016Z,1.65
2023-03-25T21:10:08.231Z,1.75
2023-03-25T21:12:44.037Z,1.73
2023-03-25T21:15:13.081Z,2.45
2023-03-25T21:17:39.742Z,2.10
2023-03-25T21:20:09.253Z,2.20
2023-03-25T21:22:43.664Z,1.63
2023-03-25T21:25:14.580Z,1.80
2023-03-25T21:27:44.789Z,1.70
2023-03-25T21:30:12.051Z,1.73
2023-03-25T21:32:39.149Z,2.17
2023-03-25T21:35:06.891Z,2.00
2023-03-25T21:37:37.756Z,1.60
2023-03-25T21:40:07.904Z,2.47
2023-03-25T21:42:34.617Z,1.90
2023-03-25T21:45:02.536Z,1.75
2023-03-25T21:47:29.160Z,1.83
2023-03-25T21:49:55.846Z,2.50
2023-03-25T21:52:26.239Z,2.60
2023-03-25T21:54:54.351Z,2.45
2023-03-25T21:57:21.876Z,2.50
2023-03-25T21:59:48.550Z,2.53
2023-03-25T22:02:15.100Z,2.80
2023-03-25T22:04:41.764Z,2.70
2023-03-25T22:07:08.500Z,3.03
2023-03-25T22:09:35.106Z,2.53
2023-03-25T22:12:01.747Z,3.42
2023-03-25T22:14:28.301Z,3.00
2023-03-25T22:16:55.008Z,4.15
2023-03-25T22:19:24.093Z,3.33
2023-03-25T22:24:17.787Z,3.15
2023-03-25T22:26:44.533Z,3.10
2023-03-25T22:29:11.572Z,3.67
2023-03-25T22:31:42.842Z,3.10
2023-03-25T22:34:12.786Z,3.50
2023-03-25T22:36:46.240Z,3.00
2023-03-25T22:39:12.921Z,3.28
2023-03-25T22:41:39.544Z,3.28
2023-03-25T22:44:06.836Z,3.40
2023-03-25T22:46:33.897Z,4.13
2023-03-25T22:49:01.121Z,3.88
2023-03-25T22:51:27.817Z,3.53
2023-03-25T22:53:54.451Z,3.45
2023-03-25T22:56:23.441Z,3.38
2023-03-25T22:58:52.989Z,3.40
2023-03-25T23:03:47.598Z,3.33
2023-03-25T23:06:14.427Z,3.72
2023-03-25T23:08:42.015Z,3.60
2023-03-25T23:11:08.541Z,3.28
2023-03-25T23:13:35.607Z,4.15
2023-03-25T23:16:05.528Z,4.10
2023-03-25T23:18:33.199Z,4.22
2023-03-25T23:20:59.879Z,3.78
2023-03-25T23:23:28.786Z,3.97
2023-03-25T23:26:04.722Z,4.65
2023-03-25T23:28:36.794Z,4.38
2023-03-25T23:31:09.197Z,4.13
2023-03-25T23:33:36.112Z,5.32
2023-03-25T23:36:05.502Z,4.80
2023-03-25T23:38:32.420Z,4.80
2023-03-25T23:41:10.073Z,4.47
2023-03-25T23:43:37.342Z,5.72
2023-03-25T23:46:06.379Z,4.88
2023-03-25T23:48:40.523Z,4.95
2023-03-25T23:51:10.531Z,6.85
2023-03-25T23:53:39.343Z,4.93
2023-03-25T23:56:06.929Z,5.47
2023-03-25T23:58:35.007Z,5.43
